SMJPSOCA

Guest
Details From SMJP - Paramaribo Johan A Pengel Intl
To SOCA - Cayenne Rochambeau
Flight Number -
Tags generated
Created
Modified
Stats Distance 174 nm / 321 km
Max Altitude 19,300 ft / 5,883 m
Waypoints 5
Social Downloads 1
Likes 0
Share VATSIM

Download

Looking for another format? Having issues loading an existing format? Contact us
Advertisement - Login to hide

Notes

Basic altitude profile: - Ascent Rate: 2500ft/min - Ascent Speed: 250kts - Cruise Altitude: 2300ft - Cruise Speed: 420kts - Descent Rate: 1500ft/min - Descent Speed: 250kts Options: - Use NATs: yes - Use PACOTS: yes - Use low airways: yes - Use high airways: yes

Route

SMJP MIKOK G443 CYR SOCA

ID Type Via Altitude Latitude Longitude Leg Dist Tot Dist Heading (true) Name
O SMJP APT - 0 ft / 0 m 5.45283˚ -55.18778˚ - 0 nm - Paramaribo Johan A Pengel Intl
MIKOK FIX - 19,300 ft / 5,883 m 5.25417˚ -54.30222˚ 54 nm 54 nm 103° / 103° -
GEDAX FIX G443 (AWY-LO) 8,600 ft / 2,621 m 4.96389˚ -53.01917˚ 78 nm 132 nm 103° / 103° -
CYR VOR G443 (AWY-LO) 3,500 ft / 1,067 m 4.81364˚ -52.36839˚ 39 nm 172 nm 103° / 103° CAYENNE VOR-DME
O SOCA APT - 0 ft / 0 m 4.81981˚ -52.36045˚ 0 nm 173 nm 52° / 52° Cayenne Rochambeau

Altitude Profile

Advertisement - Login to hide

Weather


0- 5 10 15 20 25 30 35+ Temperature / ° C

Clouds and Precipitation
Forecast for 2017-12-16 00:00 UTC. Updated 36 minutes ago

Ground ~20,000 ft ~40,000 ft Winds

SMJP

Details ICAO SMJP (PBM)
Name Paramaribo Johan A Pengel Intl
Region Suriname
Timezone America/Paramaribo (UTC-3.0)
Stats Elevation 59 ft / 18 m (AMSL)
Location 5.452831° -55.187783°
Runways 1
Magnetic Variation 17.548° W

METAR

SMJP 152100Z 03005KT 9999 VCSH FEW015CB SCT035 26/23 Q1010 NOSIG

Decode

TAF

Not found

Departure Runways

ID Width Length Bearing (true) Bearing (mag) Surface Threshold Offset Overrun Length
11 148 ft / 45 m 11,415 ft / 3,479 m 89.66° 107.21° Concrete 0 ft / 0 m 164 ft / 50 m
29 148 ft / 45 m 11,415 ft / 3,479 m 269.67° 287.22° Concrete 0 ft / 0 m 197 ft / 60 m

SOCA

Details ICAO SOCA (CAY)
Name Cayenne Rochambeau
Region French Guiana
Timezone America/Cayenne (UTC-3.0)
Stats Elevation 26 ft / 8 m (AMSL)
Location 4.819807° -52.360446°
Runways 1
Magnetic Variation 18.389° W

METAR

SOCA 152130Z AUTO 10002KT 9999 FEW049 BKN060 OVC120 25/24 Q1011 NOSIG

Decode

TAF

Not found

Destination Runways

ID Width Length Bearing (true) Bearing (mag) Surface Threshold Offset Overrun Length
08 148 ft / 45 m 10,489 ft / 3,197 m 65.20° 83.59° Asphalt 0 ft / 0 m 244 ft / 74 m
26 148 ft / 45 m 10,489 ft / 3,197 m 245.20° 263.59° Asphalt 0 ft / 0 m 0 ft / 0 m

Popular Alternatives